KBGM METAR

Date/Time (Local) Flight Rules Wind Clouds Visibility Temperature Dewpoint Altimeter Remarks
06/17 1:53 am VFR 280° @ 6 kts CLR 10.0sm 10.0°C / 50°F 2.2°C / 35.6°F 29.97933
06/17 12:53 am VFR 270° @ 4 kts CLR 10.0sm 9.4°C / 48.2°F 2.2°C / 35.6°F 29.97933
06/16 11:53 pm VFR 260° @ 4 kts CLR 10.0sm 11.1°C / 51.8°F 2.2°C / 35.6°F 29.991142
06/16 10:53 pm VFR 320° @ 3 kts CLR 10.0sm 12.8°C / 53.6°F 1.1°C / 33.8°F 29.991142
06/16 9:53 pm VFR 360° @ 4 kts CLR 10.0sm 12.8°C / 53.6°F 1.1°C / 33.8°F 29.97933
06/16 8:53 pm VFR 360° @ 7 kts CLR 10.0sm 12.8°C / 53.6°F 1.1°C / 33.8°F 29.970472
06/16 7:53 pm VFR 330° @ 6 kts CLR 10.0sm 15.6°C / 59°F -0.6°C / 32°F 29.958662
06/16 6:53 pm VFR 320° @ 12 - 17 kts CLR 10.0sm 16.7°C / 60.8°F 1.7°C / 33.8°F 29.949802
Show/Hide History...

BGM AFD

.AVIATION /06Z THURSDAY THROUGH MONDAY/...
VFR conditions are expected through the period with just a few
high clouds expected. Winds will be light through the morning
and then increase to 10 to 15 knots out of the NW by noon, but
will begin to decrease again Thursday evening.

Outlook...

Friday...Mainly VFR. Patchy valley fog possible early in the
morning later in the week as low level moisture increases.

Friday night through Saturday...Chance for showers and
thunderstorms with associated restrictions, otherwise VFR.

Sunday...VFR conditions likely.

Monday...Chance for rain showers and thunderstorms, especially
in the afternoon, with associated restrictions.

Nearby AWOS/ASOS

KBGM: Binghamton 607-729-8335 128.15
KCZG: Tri-Cities 607-785-2926 119.075
N23: Sidney 607-561-2333 118.275
KOIC: Norwich 607-336-8583 119.025
N03: Cortland 607-753-9784 132.225
KAVP: Scranton 570-655-0748 111.6 (VOR)

KBGM TAF

Date/Time (Local) Flight Rules Wind Clouds Visibility (sm)  
06/17 2:00 am thru 06/17 12:00 pm VFR Variable @ 0 kts FEW 20000 >= 6
06/17 12:00 pm thru 06/17 6:00 pm FM VFR 310° @ 6 - 14 kts SKC >= 6
06/17 6:00 pm thru 06/18 2:00 am FM VFR 300° @ 5 kts FEW 25000 >= 6

KELM METAR

Date/Time (Local) Flight Rules Wind Clouds Visibility Temperature Dewpoint Altimeter Remarks
06/17 1:53 am VFR 250° @ 5 kts CLR 10.0sm 8.3°C / 46.4°F 4.4°C / 39.2°F 30.0
06/17 12:53 am VFR 300° @ 3 kts CLR 10.0sm 6.1°C / 42.8°F 3.9°C / 37.4°F 30.008858
06/16 11:53 pm VFR 240° @ 3 kts CLR 10.0sm 7.2°C / 44.6°F 3.9°C / 37.4°F 30.008858
06/16 10:53 pm VFR Calm CLR 10.0sm 10.6°C / 50°F 4.4°C / 39.2°F 30.0
06/16 9:53 pm VFR 260° @ 3 kts CLR 10.0sm 12.8°C / 53.6°F 3.9°C / 37.4°F 29.97933
06/16 8:53 pm VFR 280° @ 5 kts CLR 10.0sm 15.6°C / 59°F 1.7°C / 33.8°F 29.970472
06/16 7:53 pm VFR 310° @ 6 kts CLR 10.0sm 18.3°C / 64.4°F 2.8°C / 35.6°F 29.958662
06/16 6:53 pm VFR 320° @ 6 kts CLR 10.0sm 18.9°C / 64.4°F 1.1°C / 33.8°F 29.949802
Show/Hide History...

KITH METAR

Date/Time (Local) Flight Rules Wind Clouds Visibility Temperature Dewpoint Altimeter Remarks
06/17 1:56 am VFR Calm CLR 10.0sm 6.7°C / 42.8°F 6.1°C / 42.8°F 30.0
06/17 12:56 am VFR Calm CLR 10.0sm 7.8°C / 44.6°F 7.2°C / 44.6°F 30.008858
06/16 11:56 pm VFR Calm CLR 10.0sm 7.8°C / 44.6°F 7.2°C / 44.6°F 30.008858
06/16 10:56 pm VFR Calm CLR 10.0sm 8.9°C / 46.4°F 7.2°C / 44.6°F 30.0
06/16 9:56 pm VFR Calm CLR 10.0sm 9.4°C / 48.2°F 6.7°C / 42.8°F 29.991142
06/16 8:56 pm VFR Calm CLR 10.0sm 12.2°C / 53.6°F 6.7°C / 42.8°F 29.97933
06/16 7:56 pm VFR 320° @ 7 kts CLR 10.0sm 16.1°C / 60.8°F 2.8°C / 35.6°F 29.970472
06/16 6:56 pm VFR 320° @ 7 kts CLR 10.0sm 18.3°C / 64.4°F 1.7°C / 33.8°F 29.958662
Show/Hide History...

KAVP METAR

Date/Time (Local) Flight Rules Wind Clouds Visibility Temperature Dewpoint Altimeter Remarks
06/17 1:54 am VFR 110° @ 6 kts CLR 10.0sm 10.6°C / 50°F 4.4°C / 39.2°F 29.991142
06/17 12:54 am VFR 100° @ 4 kts CLR 10.0sm 10.6°C / 50°F 5.0°C / 41°F 30.0
06/16 11:54 pm VFR 110° @ 4 kts CLR 10.0sm 12.2°C / 53.6°F 5.0°C / 41°F 29.991142
06/16 10:54 pm VFR 110° @ 3 kts CLR 10.0sm 12.2°C / 53.6°F 6.1°C / 42.8°F 29.991142
06/16 9:54 pm VFR 90° @ 3 kts CLR 10.0sm 13.3°C / 55.4°F 6.7°C / 42.8°F 29.970472
06/16 8:54 pm VFR Calm FEW 7500 10.0sm 15.6°C / 59°F 6.7°C / 42.8°F 29.949802
06/16 7:54 pm VFR 340° @ 5 kts FEW 7500 10.0sm 19.4°C / 66.2°F 3.9°C / 37.4°F 29.929134
06/16 6:54 pm VFR 340° @ 10 kts CLR 10.0sm 21.7°C / 69.8°F 2.8°C / 35.6°F 29.920275
Show/Hide History...

KSYR METAR

Date/Time (Local) Flight Rules Wind Clouds Visibility Temperature Dewpoint Altimeter Remarks
06/17 1:54 am VFR 240° @ 8 kts CLR 10.0sm 13.3°C / 55.4°F 5.0°C / 41°F 29.958662
06/17 12:54 am VFR 240° @ 4 kts FEW 25000 10.0sm 13.3°C / 55.4°F 5.6°C / 41°F 29.970472
06/16 11:54 pm VFR 250° @ 8 kts FEW 20000 10.0sm 14.4°C / 57.2°F 5.0°C / 41°F 29.958662
06/16 10:54 pm VFR 240° @ 6 kts FEW 18000 10.0sm 15.0°C / 59°F 4.4°C / 39.2°F 29.958662
06/16 9:54 pm VFR 240° @ 6 kts FEW 10000 FEW 18000 10.0sm 15.6°C / 59°F 3.9°C / 37.4°F 29.949802
06/16 8:54 pm VFR 250° @ 7 kts FEW 10000 SCT 16000 10.0sm 16.1°C / 60.8°F 3.3°C / 37.4°F 29.940945
06/16 7:54 pm VFR 260° @ 8 kts SCT 10000 BKN 16000 10.0sm 18.3°C / 64.4°F 3.3°C / 37.4°F 29.940945
06/16 6:54 pm VFR 280° @ 11 kts FEW 9000 SCT 16000 10.0sm 18.3°C / 64.4°F 2.2°C / 35.6°F 29.940945
Show/Hide History...